Laws, California
Current Conditions -  °F | °C
As of 7:56 PM on Wednesday 28 Jan 2015 (Local Time) from KBIH Reporting Station
Few Clouds Few Clouds  
Wind Chill: 51°   Ceiling: Unl
Heat Index: 51°   Visibility: 10mi
Dew Point: 29°   Wind: 12mph
Humidity: 43%   Direction: 180°S
Pressure: 30.23"   Gusts: NA
Location:  37.4772°N, 118.401°W
Report Text: KBIH 290356Z AUTO 18010KT 10SM FEW080 11/M02 A3023 RMK AO2 SLP230 T01061017
Loading
Personal Weather Stations






























Interactive Weather Map New forecast layout! Learn more

10-Day Weather Forecast

Advertisements
Track Severe Weather on mobile